sensor_id;sensor_type;location;lat;lon;timestamp;P1;durP1;ratioP1;P2;durP2;ratioP2
6999;SDS011;3540;53.242;10.408;2023-04-07T00:01:22;11.70;;;7.90;;
6999;SDS011;3540;53.242;10.408;2023-04-07T00:03:47;22.93;;;12.90;;
6999;SDS011;3540;53.242;10.408;2023-04-07T00:06:13;14.43;;;9.00;;
6999;SDS011;3540;53.242;10.408;2023-04-07T00:08:39;12.30;;;8.30;;
6999;SDS011;3540;53.242;10.408;2023-04-07T00:11:05;15.43;;;8.40;;
6999;SDS011;3540;53.242;10.408;2023-04-07T00:13:32;13.23;;;8.33;;
6999;SDS011;3540;53.242;10.408;2023-04-07T00:15:58;13.80;;;8.10;;
6999;SDS011;3540;53.242;10.408;2023-04-07T00:18:24;11.53;;;8.10;;
6999;SDS011;3540;53.242;10.408;2023-04-07T00:20:49;12.90;;;8.00;;
6999;SDS011;3540;53.242;10.408;2023-04-07T00:23:15;11.20;;;8.10;;
6999;SDS011;3540;53.242;10.408;2023-04-07T00:25:40;18.00;;;8.60;;
6999;SDS011;3540;53.242;10.408;2023-04-07T00:28:06;13.00;;;7.87;;
6999;SDS011;3540;53.242;10.408;2023-04-07T00:30:32;12.60;;;8.43;;
6999;SDS011;3540;53.242;10.408;2023-04-07T00:32:57;12.90;;;7.90;;
6999;SDS011;3540;53.242;10.408;2023-04-07T00:35:23;12.87;;;8.17;;
6999;SDS011;3540;53.242;10.408;2023-04-07T00:37:48;14.37;;;7.73;;
6999;SDS011;3540;53.242;10.408;2023-04-07T00:40:14;10.73;;;7.87;;
6999;SDS011;3540;53.242;10.408;2023-04-07T00:42:41;10.43;;;7.47;;
6999;SDS011;3540;53.242;10.408;2023-04-07T00:45:06;10.40;;;7.60;;
6999;SDS011;3540;53.242;10.408;2023-04-07T00:47:34;13.73;;;7.53;;
6999;SDS011;3540;53.242;10.408;2023-04-07T00:49:59;9.93;;;7.50;;
6999;SDS011;3540;53.242;10.408;2023-04-07T00:52:27;11.80;;;7.47;;
6999;SDS011;3540;53.242;10.408;2023-04-07T00:54:54;10.73;;;7.57;;
6999;SDS011;3540;53.242;10.408;2023-04-07T00:57:20;13.33;;;7.87;;
6999;SDS011;3540;53.242;10.408;2023-04-07T00:59:47;10.93;;;8.07;;
6999;SDS011;3540;53.242;10.408;2023-04-07T01:05:19;10.07;;;7.40;;
6999;SDS011;3540;53.242;10.408;2023-04-07T01:10:37;10.53;;;7.10;;
6999;SDS011;3540;53.242;10.408;2023-04-07T01:16:00;10.90;;;7.27;;
6999;SDS011;3540;53.242;10.408;2023-04-07T01:18:32;9.37;;;7.10;;
6999;SDS011;3540;53.242;10.408;2023-04-07T01:21:04;10.20;;;7.03;;
6999;SDS011;3540;53.242;10.408;2023-04-07T01:23:38;10.20;;;7.43;;
6999;SDS011;3540;53.242;10.408;2023-04-07T01:31:35;9.93;;;7.20;;
6999;SDS011;3540;53.242;10.408;2023-04-07T01:34:03;9.73;;;7.17;;
6999;SDS011;3540;53.242;10.408;2023-04-07T01:36:33;11.93;;;7.13;;
6999;SDS011;3540;53.242;10.408;2023-04-07T01:38:58;9.00;;;7.07;;
6999;SDS011;3540;53.242;10.408;2023-04-07T01:41:25;9.77;;;6.80;;
6999;SDS011;3540;53.242;10.408;2023-04-07T01:43:52;10.43;;;6.40;;
6999;SDS011;3540;53.242;10.408;2023-04-07T01:46:19;11.33;;;6.47;;
6999;SDS011;3540;53.242;10.408;2023-04-07T01:48:46;9.97;;;6.67;;
6999;SDS011;3540;53.242;10.408;2023-04-07T01:51:12;9.97;;;6.57;;
6999;SDS011;3540;53.242;10.408;2023-04-07T01:53:43;8.87;;;6.37;;
6999;SDS011;3540;53.242;10.408;2023-04-07T01:56:10;9.67;;;6.90;;
6999;SDS011;3540;53.242;10.408;2023-04-07T01:58:36;9.20;;;6.37;;
6999;SDS011;3540;53.242;10.408;2023-04-07T02:01:01;9.10;;;6.73;;
6999;SDS011;3540;53.242;10.408;2023-04-07T02:03:34;10.47;;;6.80;;
6999;SDS011;3540;53.242;10.408;2023-04-07T02:06:03;8.70;;;6.00;;
6999;SDS011;3540;53.242;10.408;2023-04-07T02:08:34;9.77;;;6.40;;
6999;SDS011;3540;53.242;10.408;2023-04-07T02:11:02;8.87;;;6.37;;
6999;SDS011;3540;53.242;10.408;2023-04-07T02:13:32;9.40;;;6.00;;
6999;SDS011;3540;53.242;10.408;2023-04-07T02:15:59;8.97;;;6.80;;
6999;SDS011;3540;53.242;10.408;2023-04-07T02:18:26;9.53;;;6.60;;
6999;SDS011;3540;53.242;10.408;2023-04-07T02:20:55;8.03;;;6.03;;
6999;SDS011;3540;53.242;10.408;2023-04-07T02:23:22;11.97;;;6.37;;
6999;SDS011;3540;53.242;10.408;2023-04-07T02:25:48;7.83;;;5.93;;
6999;SDS011;3540;53.242;10.408;2023-04-07T02:28:13;8.87;;;6.43;;
6999;SDS011;3540;53.242;10.408;2023-04-07T02:30:39;9.43;;;6.17;;
6999;SDS011;3540;53.242;10.408;2023-04-07T02:33:05;9.47;;;6.20;;
6999;SDS011;3540;53.242;10.408;2023-04-07T02:35:30;11.67;;;6.70;;
6999;SDS011;3540;53.242;10.408;2023-04-07T02:37:56;7.57;;;6.13;;
6999;SDS011;3540;53.242;10.408;2023-04-07T02:40:22;7.50;;;6.07;;
6999;SDS011;3540;53.242;10.408;2023-04-07T02:42:47;9.27;;;6.20;;
6999;SDS011;3540;53.242;10.408;2023-04-07T02:45:13;11.30;;;6.07;;
6999;SDS011;3540;53.242;10.408;2023-04-07T02:47:40;8.17;;;6.23;;
6999;SDS011;3540;53.242;10.408;2023-04-07T02:50:05;10.63;;;6.40;;
6999;SDS011;3540;53.242;10.408;2023-04-07T02:52:31;10.00;;;6.00;;
6999;SDS011;3540;53.242;10.408;2023-04-07T02:54:57;8.30;;;6.50;;
6999;SDS011;3540;53.242;10.408;2023-04-07T02:57:22;8.20;;;6.40;;
6999;SDS011;3540;53.242;10.408;2023-04-07T02:59:48;7.37;;;5.43;;
6999;SDS011;3540;53.242;10.408;2023-04-07T03:02:14;9.60;;;6.30;;
6999;SDS011;3540;53.242;10.408;2023-04-07T03:04:39;8.73;;;5.97;;
6999;SDS011;3540;53.242;10.408;2023-04-07T03:07:05;9.23;;;5.87;;
6999;SDS011;3540;53.242;10.408;2023-04-07T03:09:31;11.97;;;6.53;;
6999;SDS011;3540;53.242;10.408;2023-04-07T03:11:56;9.30;;;6.33;;
6999;SDS011;3540;53.242;10.408;2023-04-07T03:14:22;8.13;;;5.50;;
6999;SDS011;3540;53.242;10.408;2023-04-07T03:16:48;8.53;;;5.90;;
6999;SDS011;3540;53.242;10.408;2023-04-07T03:19:13;9.33;;;5.83;;
6999;SDS011;3540;53.242;10.408;2023-04-07T03:21:40;8.03;;;5.87;;
6999;SDS011;3540;53.242;10.408;2023-04-07T03:24:06;7.07;;;5.83;;
6999;SDS011;3540;53.242;10.408;2023-04-07T03:26:32;7.00;;;5.60;;
6999;SDS011;3540;53.242;10.408;2023-04-07T03:28:57;11.97;;;6.50;;
6999;SDS011;3540;53.242;10.408;2023-04-07T03:31:23;7.53;;;5.87;;
6999;SDS011;3540;53.242;10.408;2023-04-07T03:33:49;8.67;;;6.33;;
6999;SDS011;3540;53.242;10.408;2023-04-07T03:36:15;9.37;;;5.77;;
6999;SDS011;3540;53.242;10.408;2023-04-07T03:38:45;8.87;;;5.93;;
6999;SDS011;3540;53.242;10.408;2023-04-07T03:41:11;6.87;;;5.60;;
6999;SDS011;3540;53.242;10.408;2023-04-07T03:43:37;9.03;;;6.20;;
6999;SDS011;3540;53.242;10.408;2023-04-07T03:46:03;8.00;;;5.90;;
6999;SDS011;3540;53.242;10.408;2023-04-07T03:48:29;7.63;;;5.57;;
6999;SDS011;3540;53.242;10.408;2023-04-07T03:50:55;8.27;;;5.67;;
6999;SDS011;3540;53.242;10.408;2023-04-07T03:53:20;9.43;;;6.03;;
6999;SDS011;3540;53.242;10.408;2023-04-07T03:55:46;8.33;;;5.83;;
6999;SDS011;3540;53.242;10.408;2023-04-07T03:58:12;7.43;;;5.60;;
6999;SDS011;3540;53.242;10.408;2023-04-07T04:00:38;9.07;;;6.00;;
6999;SDS011;3540;53.242;10.408;2023-04-07T04:03:03;9.47;;;5.70;;
6999;SDS011;3540;53.242;10.408;2023-04-07T04:05:29;8.43;;;5.43;;
6999;SDS011;3540;53.242;10.408;2023-04-07T04:07:55;9.30;;;5.93;;
6999;SDS011;3540;53.242;10.408;2023-04-07T04:10:20;7.90;;;5.73;;
6999;SDS011;3540;53.242;10.408;2023-04-07T04:12:47;9.40;;;6.00;;
6999;SDS011;3540;53.242;10.408;2023-04-07T04:15:13;7.30;;;5.70;;
6999;SDS011;3540;53.242;10.408;2023-04-07T04:17:39;6.57;;;5.30;;
6999;SDS011;3540;53.242;10.408;2023-04-07T04:20:06;7.63;;;5.67;;
6999;SDS011;3540;53.242;10.408;2023-04-07T04:22:32;8.00;;;5.80;;
6999;SDS011;3540;53.242;10.408;2023-04-07T04:24:58;11.13;;;6.10;;
6999;SDS011;3540;53.242;10.408;2023-04-07T04:27:25;9.63;;;5.50;;
6999;SDS011;3540;53.242;10.408;2023-04-07T04:29:50;10.47;;;5.70;;
6999;SDS011;3540;53.242;10.408;2023-04-07T04:32:17;8.00;;;5.77;;
6999;SDS011;3540;53.242;10.408;2023-04-07T04:34:43;7.20;;;5.23;;
6999;SDS011;3540;53.242;10.408;2023-04-07T04:37:09;7.73;;;5.20;;
6999;SDS011;3540;53.242;10.408;2023-04-07T04:39:34;10.30;;;5.90;;
6999;SDS011;3540;53.242;10.408;2023-04-07T04:42:00;7.30;;;5.10;;
6999;SDS011;3540;53.242;10.408;2023-04-07T04:44:26;8.77;;;5.17;;
6999;SDS011;3540;53.242;10.408;2023-04-07T04:46:51;7.07;;;5.40;;
6999;SDS011;3540;53.242;10.408;2023-04-07T04:49:17;7.77;;;5.17;;
6999;SDS011;3540;53.242;10.408;2023-04-07T04:51:44;9.10;;;5.23;;
6999;SDS011;3540;53.242;10.408;2023-04-07T04:54:10;8.43;;;5.40;;
6999;SDS011;3540;53.242;10.408;2023-04-07T04:56:35;9.03;;;5.80;;
6999;SDS011;3540;53.242;10.408;2023-04-07T04:59:01;8.73;;;5.67;;
6999;SDS011;3540;53.242;10.408;2023-04-07T05:01:28;6.97;;;5.20;;
6999;SDS011;3540;53.242;10.408;2023-04-07T05:03:54;7.27;;;5.63;;
6999;SDS011;3540;53.242;10.408;2023-04-07T05:06:20;9.10;;;5.90;;
6999;SDS011;3540;53.242;10.408;2023-04-07T05:08:46;9.73;;;6.00;;
6999;SDS011;3540;53.242;10.408;2023-04-07T05:11:11;7.37;;;5.60;;
6999;SDS011;3540;53.242;10.408;2023-04-07T05:13:37;7.73;;;5.53;;
6999;SDS011;3540;53.242;10.408;2023-04-07T05:16:03;8.57;;;5.50;;
6999;SDS011;3540;53.242;10.408;2023-04-07T05:18:29;8.17;;;5.83;;
6999;SDS011;3540;53.242;10.408;2023-04-07T05:20:54;8.13;;;5.70;;
6999;SDS011;3540;53.242;10.408;2023-04-07T05:23:20;7.17;;;5.80;;
6999;SDS011;3540;53.242;10.408;2023-04-07T05:25:46;7.27;;;5.60;;
6999;SDS011;3540;53.242;10.408;2023-04-07T05:28:11;7.93;;;5.40;;
6999;SDS011;3540;53.242;10.408;2023-04-07T05:30:37;8.13;;;5.80;;
6999;SDS011;3540;53.242;10.408;2023-04-07T05:33:02;10.33;;;5.80;;
6999;SDS011;3540;53.242;10.408;2023-04-07T05:35:28;7.67;;;5.50;;
6999;SDS011;3540;53.242;10.408;2023-04-07T05:37:54;7.23;;;5.33;;
6999;SDS011;3540;53.242;10.408;2023-04-07T05:40:20;9.67;;;5.80;;
6999;SDS011;3540;53.242;10.408;2023-04-07T05:42:45;11.10;;;7.37;;
6999;SDS011;3540;53.242;10.408;2023-04-07T05:45:11;8.87;;;5.90;;
6999;SDS011;3540;53.242;10.408;2023-04-07T05:47:37;9.13;;;5.67;;
6999;SDS011;3540;53.242;10.408;2023-04-07T05:50:03;8.67;;;5.77;;
6999;SDS011;3540;53.242;10.408;2023-04-07T05:52:29;11.47;;;5.30;;
6999;SDS011;3540;53.242;10.408;2023-04-07T05:54:55;11.33;;;5.80;;
6999;SDS011;3540;53.242;10.408;2023-04-07T05:57:20;6.70;;;4.80;;
6999;SDS011;3540;53.242;10.408;2023-04-07T05:59:46;8.73;;;5.33;;
6999;SDS011;3540;53.242;10.408;2023-04-07T06:02:12;7.13;;;5.13;;
6999;SDS011;3540;53.242;10.408;2023-04-07T06:04:38;9.33;;;5.67;;
6999;SDS011;3540;53.242;10.408;2023-04-07T06:07:04;7.70;;;5.57;;
6999;SDS011;3540;53.242;10.408;2023-04-07T06:09:30;8.90;;;5.03;;
6999;SDS011;3540;53.242;10.408;2023-04-07T06:11:55;9.10;;;5.70;;
6999;SDS011;3540;53.242;10.408;2023-04-07T06:14:21;8.43;;;5.30;;
6999;SDS011;3540;53.242;10.408;2023-04-07T06:16:47;9.53;;;5.67;;
6999;SDS011;3540;53.242;10.408;2023-04-07T06:19:13;8.87;;;5.40;;
6999;SDS011;3540;53.242;10.408;2023-04-07T06:21:38;8.90;;;5.77;;
6999;SDS011;3540;53.242;10.408;2023-04-07T06:24:04;10.03;;;5.50;;
6999;SDS011;3540;53.242;10.408;2023-04-07T06:26:31;9.80;;;5.43;;
6999;SDS011;3540;53.242;10.408;2023-04-07T06:28:57;8.03;;;6.20;;
6999;SDS011;3540;53.242;10.408;2023-04-07T06:31:23;10.03;;;5.53;;
6999;SDS011;3540;53.242;10.408;2023-04-07T06:33:48;9.87;;;5.40;;
6999;SDS011;3540;53.242;10.408;2023-04-07T06:36:14;8.53;;;5.53;;
6999;SDS011;3540;53.242;10.408;2023-04-07T06:38:40;9.07;;;5.23;;
6999;SDS011;3540;53.242;10.408;2023-04-07T06:41:06;11.17;;;6.10;;
6999;SDS011;3540;53.242;10.408;2023-04-07T06:43:35;7.57;;;5.50;;
6999;SDS011;3540;53.242;10.408;2023-04-07T06:46:01;8.33;;;5.90;;
6999;SDS011;3540;53.242;10.408;2023-04-07T06:48:27;8.67;;;6.07;;
6999;SDS011;3540;53.242;10.408;2023-04-07T06:50:52;9.47;;;5.73;;
6999;SDS011;3540;53.242;10.408;2023-04-07T06:53:18;10.77;;;5.60;;
6999;SDS011;3540;53.242;10.408;2023-04-07T06:55:43;8.43;;;6.00;;
6999;SDS011;3540;53.242;10.408;2023-04-07T06:58:09;10.77;;;5.60;;
6999;SDS011;3540;53.242;10.408;2023-04-07T07:00:35;8.83;;;5.60;;
6999;SDS011;3540;53.242;10.408;2023-04-07T07:03:01;14.93;;;5.70;;
6999;SDS011;3540;53.242;10.408;2023-04-07T07:05:26;10.87;;;5.50;;
6999;SDS011;3540;53.242;10.408;2023-04-07T07:07:52;11.90;;;5.90;;
6999;SDS011;3540;53.242;10.408;2023-04-07T07:10:18;8.70;;;5.13;;
6999;SDS011;3540;53.242;10.408;2023-04-07T07:12:47;8.67;;;5.43;;
6999;SDS011;3540;53.242;10.408;2023-04-07T07:15:13;8.40;;;5.27;;
6999;SDS011;3540;53.242;10.408;2023-04-07T07:17:39;8.40;;;5.20;;
6999;SDS011;3540;53.242;10.408;2023-04-07T07:20:05;9.00;;;5.37;;
6999;SDS011;3540;53.242;10.408;2023-04-07T07:22:31;7.33;;;4.90;;
6999;SDS011;3540;53.242;10.408;2023-04-07T07:24:57;8.97;;;5.33;;
6999;SDS011;3540;53.242;10.408;2023-04-07T07:27:23;8.63;;;5.33;;
6999;SDS011;3540;53.242;10.408;2023-04-07T07:29:48;8.87;;;5.80;;
6999;SDS011;3540;53.242;10.408;2023-04-07T07:32:14;7.10;;;5.40;;
6999;SDS011;3540;53.242;10.408;2023-04-07T07:34:39;10.87;;;5.63;;
6999;SDS011;3540;53.242;10.408;2023-04-07T07:37:05;7.87;;;5.33;;
6999;SDS011;3540;53.242;10.408;2023-04-07T07:39:31;7.60;;;5.47;;
6999;SDS011;3540;53.242;10.408;2023-04-07T07:41:56;10.07;;;5.57;;
6999;SDS011;3540;53.242;10.408;2023-04-07T07:44:22;6.83;;;5.10;;
6999;SDS011;3540;53.242;10.408;2023-04-07T07:46:48;7.57;;;4.80;;
6999;SDS011;3540;53.242;10.408;2023-04-07T07:49:14;12.43;;;7.70;;
6999;SDS011;3540;53.242;10.408;2023-04-07T07:51:40;8.23;;;5.37;;
6999;SDS011;3540;53.242;10.408;2023-04-07T07:54:05;9.40;;;5.50;;
6999;SDS011;3540;53.242;10.408;2023-04-07T07:56:31;7.67;;;5.10;;
6999;SDS011;3540;53.242;10.408;2023-04-07T07:58:57;10.40;;;5.10;;
6999;SDS011;3540;53.242;10.408;2023-04-07T08:01:23;8.70;;;5.00;;
6999;SDS011;3540;53.242;10.408;2023-04-07T08:03:48;7.83;;;5.23;;
6999;SDS011;3540;53.242;10.408;2023-04-07T08:06:14;8.20;;;5.30;;
6999;SDS011;3540;53.242;10.408;2023-04-07T08:08:40;9.20;;;5.17;;
6999;SDS011;3540;53.242;10.408;2023-04-07T08:11:06;9.23;;;5.57;;
6999;SDS011;3540;53.242;10.408;2023-04-07T08:13:31;7.50;;;5.40;;
6999;SDS011;3540;53.242;10.408;2023-04-07T08:15:57;9.37;;;5.07;;
6999;SDS011;3540;53.242;10.408;2023-04-07T08:18:23;7.27;;;5.30;;
6999;SDS011;3540;53.242;10.408;2023-04-07T08:20:49;7.73;;;4.70;;
6999;SDS011;3540;53.242;10.408;2023-04-07T08:23:15;9.23;;;5.33;;
6999;SDS011;3540;53.242;10.408;2023-04-07T08:25:41;8.80;;;5.00;;
6999;SDS011;3540;53.242;10.408;2023-04-07T08:28:07;9.10;;;4.97;;
6999;SDS011;3540;53.242;10.408;2023-04-07T08:30:33;7.23;;;4.80;;
6999;SDS011;3540;53.242;10.408;2023-04-07T08:32:58;7.20;;;5.03;;
6999;SDS011;3540;53.242;10.408;2023-04-07T08:35:24;7.90;;;5.00;;
6999;SDS011;3540;53.242;10.408;2023-04-07T08:37:49;7.70;;;5.30;;
6999;SDS011;3540;53.242;10.408;2023-04-07T08:40:15;14.10;;;8.83;;
6999;SDS011;3540;53.242;10.408;2023-04-07T08:42:42;11.70;;;6.63;;
6999;SDS011;3540;53.242;10.408;2023-04-07T08:45:12;8.20;;;5.00;;
6999;SDS011;3540;53.242;10.408;2023-04-07T08:47:40;8.60;;;4.53;;
6999;SDS011;3540;53.242;10.408;2023-04-07T08:50:08;7.37;;;4.83;;
6999;SDS011;3540;53.242;10.408;2023-04-07T08:55:03;8.10;;;5.27;;
6999;SDS011;3540;53.242;10.408;2023-04-07T08:57:31;8.77;;;4.73;;
6999;SDS011;3540;53.242;10.408;2023-04-07T08:59:58;7.43;;;5.00;;
6999;SDS011;3540;53.242;10.408;2023-04-07T09:02:31;7.93;;;4.80;;
6999;SDS011;3540;53.242;10.408;2023-04-07T09:05:00;8.20;;;5.00;;
6999;SDS011;3540;53.242;10.408;2023-04-07T09:07:27;9.40;;;4.80;;
6999;SDS011;3540;53.242;10.408;2023-04-07T09:09:54;6.53;;;4.10;;
6999;SDS011;3540;53.242;10.408;2023-04-07T09:12:21;7.93;;;4.40;;
6999;SDS011;3540;53.242;10.408;2023-04-07T09:14:46;6.67;;;4.10;;
6999;SDS011;3540;53.242;10.408;2023-04-07T09:17:12;8.00;;;4.53;;
6999;SDS011;3540;53.242;10.408;2023-04-07T09:19:37;9.50;;;4.80;;
6999;SDS011;3540;53.242;10.408;2023-04-07T09:22:03;11.37;;;4.87;;
6999;SDS011;3540;53.242;10.408;2023-04-07T09:24:29;6.43;;;4.47;;
6999;SDS011;3540;53.242;10.408;2023-04-07T09:27:07;7.17;;;4.77;;
6999;SDS011;3540;53.242;10.408;2023-04-07T09:29:36;9.80;;;4.70;;
6999;SDS011;3540;53.242;10.408;2023-04-07T09:32:02;7.17;;;5.07;;
6999;SDS011;3540;53.242;10.408;2023-04-07T09:34:30;10.97;;;4.87;;
6999;SDS011;3540;53.242;10.408;2023-04-07T09:36:56;8.10;;;5.00;;
6999;SDS011;3540;53.242;10.408;2023-04-07T09:39:23;8.37;;;4.90;;
6999;SDS011;3540;53.242;10.408;2023-04-07T09:41:49;9.13;;;4.90;;
6999;SDS011;3540;53.242;10.408;2023-04-07T09:44:16;9.13;;;4.70;;
6999;SDS011;3540;53.242;10.408;2023-04-07T09:46:52;5.93;;;4.33;;
6999;SDS011;3540;53.242;10.408;2023-04-07T09:49:19;5.97;;;4.50;;
6999;SDS011;3540;53.242;10.408;2023-04-07T09:54:37;8.40;;;4.83;;
6999;SDS011;3540;53.242;10.408;2023-04-07T09:57:08;10.43;;;5.27;;
6999;SDS011;3540;53.242;10.408;2023-04-07T09:59:36;7.30;;;4.73;;
6999;SDS011;3540;53.242;10.408;2023-04-07T10:02:04;12.13;;;6.20;;
6999;SDS011;3540;53.242;10.408;2023-04-07T10:04:30;7.77;;;4.73;;
6999;SDS011;3540;53.242;10.408;2023-04-07T10:06:56;9.03;;;4.83;;
6999;SDS011;3540;53.242;10.408;2023-04-07T10:09:24;7.50;;;4.93;;
6999;SDS011;3540;53.242;10.408;2023-04-07T10:11:51;7.53;;;4.77;;
6999;SDS011;3540;53.242;10.408;2023-04-07T10:14:18;9.87;;;4.63;;
6999;SDS011;3540;53.242;10.408;2023-04-07T10:16:46;8.00;;;4.30;;
6999;SDS011;3540;53.242;10.408;2023-04-07T10:19:12;6.93;;;3.97;;
6999;SDS011;3540;53.242;10.408;2023-04-07T10:21:39;6.33;;;4.50;;
6999;SDS011;3540;53.242;10.408;2023-04-07T10:26:55;9.53;;;6.33;;
6999;SDS011;3540;53.242;10.408;2023-04-07T10:29:23;7.10;;;4.17;;
6999;SDS011;3540;53.242;10.408;2023-04-07T10:31:51;6.93;;;4.73;;
6999;SDS011;3540;53.242;10.408;2023-04-07T10:34:17;8.87;;;5.20;;
6999;SDS011;3540;53.242;10.408;2023-04-07T10:37:12;8.20;;;5.13;;
6999;SDS011;3540;53.242;10.408;2023-04-07T10:39:41;7.57;;;5.07;;
6999;SDS011;3540;53.242;10.408;2023-04-07T10:42:43;8.60;;;5.00;;
6999;SDS011;3540;53.242;10.408;2023-04-07T10:45:05;6.63;;;4.70;;
6999;SDS011;3540;53.242;10.408;2023-04-07T10:48:07;7.83;;;5.40;;
6999;SDS011;3540;53.242;10.408;2023-04-07T10:50:24;8.57;;;5.60;;
6999;SDS011;3540;53.242;10.408;2023-04-07T10:53:07;7.37;;;5.23;;
6999;SDS011;3540;53.242;10.408;2023-04-07T11:03:24;6.63;;;5.00;;
6999;SDS011;3540;53.242;10.408;2023-04-07T11:05:52;8.13;;;5.30;;
6999;SDS011;3540;53.242;10.408;2023-04-07T11:08:33;6.77;;;4.97;;
6999;SDS011;3540;53.242;10.408;2023-04-07T11:11:00;6.27;;;5.00;;
6999;SDS011;3540;53.242;10.408;2023-04-07T11:13:26;7.97;;;4.83;;
6999;SDS011;3540;53.242;10.408;2023-04-07T11:15:52;8.70;;;5.37;;
6999;SDS011;3540;53.242;10.408;2023-04-07T11:18:21;6.83;;;4.63;;
6999;SDS011;3540;53.242;10.408;2023-04-07T11:20:53;7.23;;;5.20;;
6999;SDS011;3540;53.242;10.408;2023-04-07T11:23:22;8.20;;;4.80;;
6999;SDS011;3540;53.242;10.408;2023-04-07T11:25:50;7.10;;;5.03;;
6999;SDS011;3540;53.242;10.408;2023-04-07T11:28:17;6.20;;;4.70;;
6999;SDS011;3540;53.242;10.408;2023-04-07T11:30:44;7.53;;;4.63;;
6999;SDS011;3540;53.242;10.408;2023-04-07T11:33:16;6.67;;;4.53;;
6999;SDS011;3540;53.242;10.408;2023-04-07T11:35:47;5.70;;;4.20;;
6999;SDS011;3540;53.242;10.408;2023-04-07T11:38:13;5.73;;;4.07;;
6999;SDS011;3540;53.242;10.408;2023-04-07T11:40:40;5.93;;;3.90;;
6999;SDS011;3540;53.242;10.408;2023-04-07T11:43:16;7.90;;;4.80;;
6999;SDS011;3540;53.242;10.408;2023-04-07T11:46:01;7.63;;;4.67;;
6999;SDS011;3540;53.242;10.408;2023-04-07T11:48:46;6.87;;;4.20;;
6999;SDS011;3540;53.242;10.408;2023-04-07T11:51:15;8.27;;;4.47;;
6999;SDS011;3540;53.242;10.408;2023-04-07T11:53:43;7.30;;;4.50;;
6999;SDS011;3540;53.242;10.408;2023-04-07T11:56:09;6.80;;;4.00;;
6999;SDS011;3540;53.242;10.408;2023-04-07T11:58:50;6.63;;;4.17;;
6999;SDS011;3540;53.242;10.408;2023-04-07T12:01:17;8.87;;;4.57;;
6999;SDS011;3540;53.242;10.408;2023-04-07T12:06:40;9.60;;;4.30;;
6999;SDS011;3540;53.242;10.408;2023-04-07T12:09:07;9.90;;;4.17;;
6999;SDS011;3540;53.242;10.408;2023-04-07T12:11:53;8.77;;;4.50;;
6999;SDS011;3540;53.242;10.408;2023-04-07T12:14:20;5.10;;;4.00;;
6999;SDS011;3540;53.242;10.408;2023-04-07T12:16:45;4.67;;;3.80;;
6999;SDS011;3540;53.242;10.408;2023-04-07T12:19:11;5.80;;;3.83;;
6999;SDS011;3540;53.242;10.408;2023-04-07T12:21:37;5.10;;;3.50;;
6999;SDS011;3540;53.242;10.408;2023-04-07T12:24:02;4.67;;;3.97;;
6999;SDS011;3540;53.242;10.408;2023-04-07T12:26:28;6.83;;;3.70;;
6999;SDS011;3540;53.242;10.408;2023-04-07T12:28:53;5.33;;;3.60;;
6999;SDS011;3540;53.242;10.408;2023-04-07T12:31:20;6.10;;;3.93;;
6999;SDS011;3540;53.242;10.408;2023-04-07T12:33:46;6.27;;;3.60;;
6999;SDS011;3540;53.242;10.408;2023-04-07T12:36:11;8.03;;;4.10;;
6999;SDS011;3540;53.242;10.408;2023-04-07T12:38:37;6.30;;;3.57;;
6999;SDS011;3540;53.242;10.408;2023-04-07T12:41:03;5.20;;;3.63;;
6999;SDS011;3540;53.242;10.408;2023-04-07T12:43:29;4.37;;;3.07;;
6999;SDS011;3540;53.242;10.408;2023-04-07T12:45:55;4.87;;;3.47;;
6999;SDS011;3540;53.242;10.408;2023-04-07T12:48:21;7.03;;;3.40;;
6999;SDS011;3540;53.242;10.408;2023-04-07T12:50:47;4.97;;;3.43;;
6999;SDS011;3540;53.242;10.408;2023-04-07T12:53:13;4.50;;;3.33;;
6999;SDS011;3540;53.242;10.408;2023-04-07T12:55:39;4.80;;;3.90;;
6999;SDS011;3540;53.242;10.408;2023-04-07T12:58:05;6.80;;;3.60;;
6999;SDS011;3540;53.242;10.408;2023-04-07T13:00:33;4.97;;;3.80;;
6999;SDS011;3540;53.242;10.408;2023-04-07T13:02:59;5.97;;;3.60;;
6999;SDS011;3540;53.242;10.408;2023-04-07T13:05:25;5.13;;;3.60;;
6999;SDS011;3540;53.242;10.408;2023-04-07T13:07:51;5.17;;;3.60;;
6999;SDS011;3540;53.242;10.408;2023-04-07T13:10:17;6.70;;;4.27;;
6999;SDS011;3540;53.242;10.408;2023-04-07T13:12:42;7.33;;;3.67;;
6999;SDS011;3540;53.242;10.408;2023-04-07T13:15:08;4.17;;;3.40;;
6999;SDS011;3540;53.242;10.408;2023-04-07T13:17:34;5.37;;;3.53;;
6999;SDS011;3540;53.242;10.408;2023-04-07T13:20:01;5.23;;;3.37;;
6999;SDS011;3540;53.242;10.408;2023-04-07T13:22:28;5.27;;;3.30;;
6999;SDS011;3540;53.242;10.408;2023-04-07T13:24:53;4.70;;;3.30;;
6999;SDS011;3540;53.242;10.408;2023-04-07T13:27:19;4.20;;;3.53;;
6999;SDS011;3540;53.242;10.408;2023-04-07T13:29:45;6.77;;;3.57;;
6999;SDS011;3540;53.242;10.408;2023-04-07T13:32:11;5.33;;;3.40;;
6999;SDS011;3540;53.242;10.408;2023-04-07T13:34:37;5.13;;;3.43;;
6999;SDS011;3540;53.242;10.408;2023-04-07T13:37:03;4.60;;;3.07;;
6999;SDS011;3540;53.242;10.408;2023-04-07T13:39:30;4.50;;;3.20;;
6999;SDS011;3540;53.242;10.408;2023-04-07T13:41:56;4.60;;;2.90;;
6999;SDS011;3540;53.242;10.408;2023-04-07T13:44:22;3.53;;;2.53;;
6999;SDS011;3540;53.242;10.408;2023-04-07T13:46:49;3.10;;;2.47;;
6999;SDS011;3540;53.242;10.408;2023-04-07T13:49:14;3.57;;;2.60;;
6999;SDS011;3540;53.242;10.408;2023-04-07T13:51:40;2.40;;;2.20;;
6999;SDS011;3540;53.242;10.408;2023-04-07T13:54:06;3.17;;;2.27;;
6999;SDS011;3540;53.242;10.408;2023-04-07T13:56:32;3.97;;;2.10;;
6999;SDS011;3540;53.242;10.408;2023-04-07T13:58:59;3.07;;;2.20;;
6999;SDS011;3540;53.242;10.408;2023-04-07T14:01:31;2.00;;;1.80;;
6999;SDS011;3540;53.242;10.408;2023-04-07T14:03:58;2.80;;;1.87;;
6999;SDS011;3540;53.242;10.408;2023-04-07T14:06:24;2.30;;;1.73;;
6999;SDS011;3540;53.242;10.408;2023-04-07T14:08:50;1.90;;;1.53;;
6999;SDS011;3540;53.242;10.408;2023-04-07T14:11:17;3.43;;;1.93;;
6999;SDS011;3540;53.242;10.408;2023-04-07T14:13:43;2.50;;;2.10;;
6999;SDS011;3540;53.242;10.408;2023-04-07T14:16:09;2.73;;;1.90;;
6999;SDS011;3540;53.242;10.408;2023-04-07T14:18:35;3.00;;;1.90;;
6999;SDS011;3540;53.242;10.408;2023-04-07T14:21:01;5.10;;;2.03;;
6999;SDS011;3540;53.242;10.408;2023-04-07T14:23:27;2.03;;;1.80;;
6999;SDS011;3540;53.242;10.408;2023-04-07T14:25:53;4.27;;;1.97;;
6999;SDS011;3540;53.242;10.408;2023-04-07T14:28:19;2.27;;;1.90;;
6999;SDS011;3540;53.242;10.408;2023-04-07T14:30:45;2.67;;;2.00;;
6999;SDS011;3540;53.242;10.408;2023-04-07T14:33:11;2.37;;;1.90;;
6999;SDS011;3540;53.242;10.408;2023-04-07T14:35:36;4.87;;;2.07;;
6999;SDS011;3540;53.242;10.408;2023-04-07T14:38:02;2.17;;;1.90;;
6999;SDS011;3540;53.242;10.408;2023-04-07T14:40:28;2.50;;;1.97;;
6999;SDS011;3540;53.242;10.408;2023-04-07T14:42:53;2.10;;;1.80;;
6999;SDS011;3540;53.242;10.408;2023-04-07T14:45:19;4.77;;;2.20;;
6999;SDS011;3540;53.242;10.408;2023-04-07T14:47:45;5.77;;;2.47;;
6999;SDS011;3540;53.242;10.408;2023-04-07T14:50:11;4.10;;;2.10;;
6999;SDS011;3540;53.242;10.408;2023-04-07T14:52:36;2.70;;;2.30;;
6999;SDS011;3540;53.242;10.408;2023-04-07T14:55:02;2.43;;;2.10;;
6999;SDS011;3540;53.242;10.408;2023-04-07T14:57:28;2.90;;;2.40;;
6999;SDS011;3540;53.242;10.408;2023-04-07T14:59:53;3.30;;;2.40;;
6999;SDS011;3540;53.242;10.408;2023-04-07T15:02:19;3.13;;;2.67;;
6999;SDS011;3540;53.242;10.408;2023-04-07T15:04:45;3.60;;;2.50;;
6999;SDS011;3540;53.242;10.408;2023-04-07T15:07:11;3.53;;;2.40;;
6999;SDS011;3540;53.242;10.408;2023-04-07T15:09:37;3.03;;;2.23;;
6999;SDS011;3540;53.242;10.408;2023-04-07T15:12:03;2.30;;;2.00;;
6999;SDS011;3540;53.242;10.408;2023-04-07T15:14:29;4.20;;;2.40;;
6999;SDS011;3540;53.242;10.408;2023-04-07T15:16:54;3.63;;;2.20;;
6999;SDS011;3540;53.242;10.408;2023-04-07T15:19:20;4.33;;;2.27;;
6999;SDS011;3540;53.242;10.408;2023-04-07T15:21:46;3.10;;;2.33;;
6999;SDS011;3540;53.242;10.408;2023-04-07T15:24:11;4.30;;;2.47;;
6999;SDS011;3540;53.242;10.408;2023-04-07T15:26:37;3.07;;;2.40;;
6999;SDS011;3540;53.242;10.408;2023-04-07T15:29:02;5.03;;;2.43;;